Time;durP1;ratioP1;P1;durP2;ratioP2;P2;SDS_P1;SDS_P2;PMS_P1;PMS_P2;Temp;Humidity;BMP_temperature;BMP_pressure;BME280_temperature;BME280_humidity;BME280_pressure;Samples;Min_cycle;Max_cycle;Signal;HPM_P1;HPM_P2
2022/05/12 00:00:55;;;;;;;3.10;0.90;;;;;;;;;;5076154;28;20035;-78
2022/05/12 00:03:20;;;;;;;1.65;0.80;;;;;;;;;;5075983;28;20505;-77
2022/05/12 00:05:46;;;;;;;2.28;0.85;;;;;;;;;;5075131;28;20450;-78
2022/05/12 00:08:12;;;;;;;4.18;1.20;;;;;;;;;;5057840;28;20032;-77
2022/05/12 00:10:37;;;;;;;1.17;0.90;;;;;;;;;;5075204;28;20036;-77
2022/05/12 00:13:04;;;;;;;1.33;0.90;;;;;;;;;;5058824;28;20058;-78
2022/05/12 00:15:31;;;;;;;1.77;0.82;;;;;;;;;;5059204;28;20031;-78
2022/05/12 00:17:58;;;;;;;2.38;0.98;;;;;;;;;;5059211;28;20028;-78
2022/05/12 00:20:24;;;;;;;1.33;0.80;;;;;;;;;;5059394;28;20020;-77
2022/05/12 00:22:50;;;;;;;2.50;0.90;;;;;;;;;;5075921;28;20463;-77
2022/05/12 00:25:19;;;;;;;1.38;0.80;;;;;;;;;;5058515;28;20025;-77
2022/05/12 00:27:45;;;;;;;2.58;0.80;;;;;;;;;;5058528;28;20020;-78
2022/05/12 00:30:11;;;;;;;2.65;0.85;;;;;;;;;;5058689;28;20047;-78
2022/05/12 00:32:43;;;;;;;1.38;0.90;;;;;;;;;;5057881;28;20063;-78
2022/05/12 00:35:10;;;;;;;2.30;1.10;;;;;;;;;;5075213;28;20386;-78
2022/05/12 00:37:36;;;;;;;2.30;1.17;;;;;;;;;;5058715;28;20059;-78
2022/05/12 00:40:02;;;;;;;1.30;0.93;;;;;;;;;;5058539;28;20345;-77
2022/05/12 00:42:27;;;;;;;3.00;0.82;;;;;;;;;;5074431;28;20028;-77
2022/05/12 00:44:53;;;;;;;1.75;0.80;;;;;;;;;;5074798;28;20107;-77
2022/05/12 00:47:18;;;;;;;1.23;0.65;;;;;;;;;;5075208;28;20029;-77
2022/05/12 00:49:45;;;;;;;5.32;1.23;;;;;;;;;;5054982;28;20044;-77
2022/05/12 00:52:20;;;;;;;1.10;0.70;;;;;;;;;;5070966;28;20053;-77
2022/05/12 00:54:54;;;;;;;1.83;0.70;;;;;;;;;;5054542;28;20201;-77
2022/05/12 00:57:24;;;;;;;2.08;0.75;;;;;;;;;;5054333;28;20086;-78
2022/05/12 00:59:50;;;;;;;2.35;0.88;;;;;;;;;;5070641;28;20521;-78
2022/05/12 01:02:18;;;;;;;1.33;0.68;;;;;;;;;;5055593;28;20028;-78
2022/05/12 01:04:45;;;;;;;2.75;1.00;;;;;;;;;;5053357;28;20028;-77
2022/05/12 01:07:11;;;;;;;1.45;0.60;;;;;;;;;;5054581;28;20074;-78
2022/05/12 01:09:37;;;;;;;2.38;1.00;;;;;;;;;;5053055;28;20033;-78
2022/05/12 01:12:03;;;;;;;3.85;0.85;;;;;;;;;;5053515;28;20029;-78
2022/05/12 01:14:28;;;;;;;2.58;0.70;;;;;;;;;;5055190;28;20097;-78
2022/05/12 01:16:59;;;;;;;1.08;0.60;;;;;;;;;;5054745;28;20412;-77
2022/05/12 01:19:37;;;;;;;1.33;0.73;;;;;;;;;;5054350;28;20096;-77
2022/05/12 01:22:05;;;;;;;1.52;0.80;;;;;;;;;;5054538;28;20098;-78
2022/05/12 01:24:32;;;;;;;1.30;0.90;;;;;;;;;;5054263;28;20102;-77
2022/05/12 01:27:18;;;;;;;0.95;0.50;;;;;;;;;;5054098;28;20031;-78
2022/05/12 01:29:43;;;;;;;5.80;1.00;;;;;;;;;;5067384;28;20041;-77
2022/05/12 01:32:08;;;;;;;1.67;0.82;;;;;;;;;;5054229;28;20472;-78
2022/05/12 01:34:34;;;;;;;2.58;0.90;;;;;;;;;;5070723;28;20033;-77
2022/05/12 01:36:59;;;;;;;1.67;1.00;;;;;;;;;;5053670;28;20426;-77
2022/05/12 01:39:25;;;;;;;3.25;0.80;;;;;;;;;;5054173;28;20039;-77
2022/05/12 01:41:50;;;;;;;1.50;0.70;;;;;;;;;;5071101;28;20167;-78
2022/05/12 01:44:15;;;;;;;2.22;1.13;;;;;;;;;;5053441;28;20056;-78
2022/05/12 01:46:41;;;;;;;1.98;0.90;;;;;;;;;;5055442;28;20032;-78
2022/05/12 01:49:06;;;;;;;1.30;0.80;;;;;;;;;;5069640;28;20361;-78
2022/05/12 01:51:33;;;;;;;1.75;0.85;;;;;;;;;;5064803;28;20052;-78
2022/05/12 01:53:58;;;;;;;2.47;0.90;;;;;;;;;;5056694;28;20119;-78
2022/05/12 01:56:23;;;;;;;1.58;1.00;;;;;;;;;;5073244;28;20063;-78
2022/05/12 01:58:49;;;;;;;1.55;1.10;;;;;;;;;;5056942;28;20036;-78
2022/05/12 02:01:14;;;;;;;2.95;0.95;;;;;;;;;;5056726;28;20067;-78
2022/05/12 02:03:39;;;;;;;1.42;0.73;;;;;;;;;;5074047;28;20107;-77
2022/05/12 02:06:05;;;;;;;3.70;1.20;;;;;;;;;;5074579;28;20036;-78
2022/05/12 02:08:30;;;;;;;2.72;1.10;;;;;;;;;;5056597;28;20182;-78
2022/05/12 02:10:56;;;;;;;2.20;1.10;;;;;;;;;;5058064;28;20059;-78
2022/05/12 02:13:25;;;;;;;3.33;0.90;;;;;;;;;;5057157;28;20025;-78
2022/05/12 02:15:51;;;;;;;2.17;0.90;;;;;;;;;;5073982;28;20035;-78
2022/05/12 02:18:18;;;;;;;2.05;0.93;;;;;;;;;;5075299;28;20127;-78
2022/05/12 02:20:44;;;;;;;1.40;0.82;;;;;;;;;;5073845;28;20018;-78
2022/05/12 02:23:09;;;;;;;1.77;1.10;;;;;;;;;;5075070;28;20090;-78
2022/05/12 02:25:34;;;;;;;1.83;1.00;;;;;;;;;;5057322;28;20343;-77
2022/05/12 02:28:00;;;;;;;2.13;1.00;;;;;;;;;;5060677;28;20089;-78
2022/05/12 02:30:28;;;;;;;4.95;1.08;;;;;;;;;;5059262;28;20033;-78
2022/05/12 02:32:54;;;;;;;2.28;0.90;;;;;;;;;;5061127;28;20035;-78
2022/05/12 02:35:20;;;;;;;2.70;1.27;;;;;;;;;;5076630;28;20024;-78
2022/05/12 02:37:45;;;;;;;1.95;1.05;;;;;;;;;;5060566;28;20032;-78
2022/05/12 02:40:14;;;;;;;2.40;1.20;;;;;;;;;;5078681;28;20025;-77
2022/05/12 02:42:40;;;;;;;3.67;0.93;;;;;;;;;;5060376;28;20020;-77
2022/05/12 02:45:07;;;;;;;1.55;0.80;;;;;;;;;;5060131;28;20092;-77
2022/05/12 02:47:32;;;;;;;3.95;1.17;;;;;;;;;;5076986;28;20028;-77
2022/05/12 02:49:59;;;;;;;2.05;1.00;;;;;;;;;;5060536;28;20116;-78
2022/05/12 02:52:24;;;;;;;1.67;1.08;;;;;;;;;;5059621;28;20114;-74
2022/05/12 02:54:50;;;;;;;1.23;1.05;;;;;;;;;;5077479;28;20040;-77
2022/05/12 02:57:15;;;;;;;1.95;0.95;;;;;;;;;;5076261;28;20336;-77
2022/05/12 02:59:41;;;;;;;2.55;1.45;;;;;;;;;;5075736;28;20037;-77
2022/05/12 03:02:06;;;;;;;1.92;1.00;;;;;;;;;;5059791;28;20035;-77
2022/05/12 03:04:33;;;;;;;2.60;1.10;;;;;;;;;;5076457;28;20055;-78
2022/05/12 03:06:59;;;;;;;1.60;1.00;;;;;;;;;;5060082;28;20024;-77
2022/05/12 03:09:24;;;;;;;2.25;1.35;;;;;;;;;;5059958;28;20517;-78
2022/05/12 03:11:50;;;;;;;1.75;1.08;;;;;;;;;;5060109;28;20020;-78
2022/05/12 03:14:15;;;;;;;2.90;1.40;;;;;;;;;;5077351;28;20463;-77
2022/05/12 03:16:42;;;;;;;3.55;1.15;;;;;;;;;;5059339;28;20048;-77
2022/05/12 03:19:07;;;;;;;3.67;1.30;;;;;;;;;;5059914;28;20087;-77
2022/05/12 03:21:33;;;;;;;3.35;0.98;;;;;;;;;;5077182;28;20487;-78
2022/05/12 03:23:58;;;;;;;1.88;1.00;;;;;;;;;;5059530;28;20033;-77
2022/05/12 03:26:24;;;;;;;2.05;1.00;;;;;;;;;;5075235;28;20112;-76
2022/05/12 03:28:50;;;;;;;1.75;0.88;;;;;;;;;;5075898;28;20362;-77
2022/05/12 03:31:16;;;;;;;2.58;1.05;;;;;;;;;;5075257;28;20024;-78
2022/05/12 03:33:41;;;;;;;2.13;1.02;;;;;;;;;;5075235;28;20028;-77
2022/05/12 03:36:07;;;;;;;5.20;1.10;;;;;;;;;;5059247;28;20329;-78
2022/05/12 03:38:33;;;;;;;1.38;1.00;;;;;;;;;;5076859;28;20037;-77
2022/05/12 03:40:59;;;;;;;3.05;0.85;;;;;;;;;;5076158;28;20056;-77
2022/05/12 03:46:08;;;;;;;1.17;0.90;;;;;;;;;;5075639;28;20055;-77
2022/05/12 03:48:38;;;;;;;1.58;1.08;;;;;;;;;;5057030;28;20033;-77
2022/05/12 03:51:04;;;;;;;1.73;1.00;;;;;;;;;;5073530;28;20056;-77
2022/05/12 03:53:30;;;;;;;4.57;1.50;;;;;;;;;;5056758;28;20031;-77
2022/05/12 03:55:56;;;;;;;3.20;1.20;;;;;;;;;;5075064;28;20028;-77
2022/05/12 03:58:21;;;;;;;1.40;0.88;;;;;;;;;;5058899;28;20115;-77
2022/05/12 04:00:48;;;;;;;1.00;0.90;;;;;;;;;;5059350;28;20025;-77
2022/05/12 04:03:14;;;;;;;1.05;0.90;;;;;;;;;;5075954;28;20036;-77
2022/05/12 04:05:39;;;;;;;1.40;0.90;;;;;;;;;;5075373;28;20043;-77
2022/05/12 04:08:05;;;;;;;2.30;1.05;;;;;;;;;;5074030;28;20046;-78
2022/05/12 04:10:32;;;;;;;0.85;0.80;;;;;;;;;;5074282;28;20036;-77
2022/05/12 04:12:58;;;;;;;1.58;1.00;;;;;;;;;;5058701;28;20115;-77
2022/05/12 04:15:23;;;;;;;2.17;1.05;;;;;;;;;;5076994;28;20025;-79
2022/05/12 04:18:01;;;;;;;5.85;2.53;;;;;;;;;;5058167;28;20089;-78
2022/05/12 04:20:28;;;;;;;7.80;2.20;;;;;;;;;;5057475;28;20122;-78
2022/05/12 04:22:53;;;;;;;3.08;1.85;;;;;;;;;;5057935;28;20035;-79
2022/05/12 04:25:19;;;;;;;3.67;1.90;;;;;;;;;;5074009;28;20391;-79
2022/05/12 04:27:44;;;;;;;4.53;1.77;;;;;;;;;;5076485;28;20512;-79
2022/05/12 04:30:12;;;;;;;6.75;2.25;;;;;;;;;;5075221;28;20037;-78
2022/05/12 04:32:38;;;;;;;6.18;2.15;;;;;;;;;;5075460;28;20020;-77
2022/05/12 04:35:11;;;;;;;5.18;2.28;;;;;;;;;;5077550;28;20085;-78
2022/05/12 04:37:37;;;;;;;3.95;1.95;;;;;;;;;;5059232;28;20036;-78
2022/05/12 04:40:07;;;;;;;4.88;2.20;;;;;;;;;;5059044;28;20044;-79
2022/05/12 04:42:33;;;;;;;4.75;2.03;;;;;;;;;;5076996;28;20378;-78
2022/05/12 04:44:58;;;;;;;6.53;2.33;;;;;;;;;;5076896;28;20112;-78
2022/05/12 04:47:24;;;;;;;4.85;2.42;;;;;;;;;;5077029;28;20039;-80
2022/05/12 04:49:50;;;;;;;7.75;3.08;;;;;;;;;;5076853;28;20367;-80
2022/05/12 04:52:16;;;;;;;6.85;2.80;;;;;;;;;;5078282;28;20054;-81
2022/05/12 04:54:41;;;;;;;16.92;4.50;;;;;;;;;;5077313;28;20040;-80
2022/05/12 04:57:07;;;;;;;32.38;7.72;;;;;;;;;;5078679;28;20024;-78
2022/05/12 04:59:33;;;;;;;29.85;7.53;;;;;;;;;;5077369;28;20021;-82
2022/05/12 05:01:58;;;;;;;21.27;5.18;;;;;;;;;;5060025;28;20108;-78
2022/05/12 05:04:23;;;;;;;41.47;7.28;;;;;;;;;;5059950;28;20097;-81
2022/05/12 05:06:49;;;;;;;20.80;6.22;;;;;;;;;;5075956;28;20035;-79
2022/05/12 05:09:14;;;;;;;24.77;6.80;;;;;;;;;;5077562;28;20024;-81
2022/05/12 05:11:40;;;;;;;27.50;6.68;;;;;;;;;;5073021;28;20029;-81
2022/05/12 05:14:05;;;;;;;18.00;5.55;;;;;;;;;;5057269;28;20032;-80
2022/05/12 05:16:31;;;;;;;21.80;4.93;;;;;;;;;;5056730;28;20036;-82
2022/05/12 05:18:56;;;;;;;17.80;5.03;;;;;;;;;;5073515;28;20104;-82
2022/05/12 05:21:22;;;;;;;18.58;4.85;;;;;;;;;;5074535;28;20436;-83
2022/05/12 05:23:47;;;;;;;18.27;4.55;;;;;;;;;;5074477;28;20047;-83
2022/05/12 05:26:13;;;;;;;15.45;4.05;;;;;;;;;;5075318;28;20336;-84
2022/05/12 05:28:39;;;;;;;16.42;4.35;;;;;;;;;;5073972;28;20036;-82
2022/05/12 05:31:05;;;;;;;16.05;4.38;;;;;;;;;;5074052;28;20119;-84
2022/05/12 05:33:30;;;;;;;11.98;3.17;;;;;;;;;;5074864;28;20520;-84
2022/05/12 05:35:57;;;;;;;12.02;3.38;;;;;;;;;;5073838;28;20081;-86
2022/05/12 05:38:22;;;;;;;13.00;3.60;;;;;;;;;;5073944;28;20107;-83
2022/05/12 05:40:48;;;;;;;9.45;3.38;;;;;;;;;;5056446;28;20060;-82
2022/05/12 05:43:13;;;;;;;8.73;3.40;;;;;;;;;;5073875;28;20048;-83
2022/05/12 05:45:39;;;;;;;8.70;2.97;;;;;;;;;;5073457;28;20033;-83
2022/05/12 05:48:05;;;;;;;10.07;2.85;;;;;;;;;;5074228;28;20382;-83
2022/05/12 05:53:26;;;;;;;10.52;2.85;;;;;;;;;;5075174;28;20453;-83
2022/05/12 05:55:53;;;;;;;10.93;2.38;;;;;;;;;;5075051;28;20037;-83
2022/05/12 05:58:19;;;;;;;7.15;2.25;;;;;;;;;;5074347;28;20032;-83
2022/05/12 06:00:45;;;;;;;7.72;2.75;;;;;;;;;;5071020;28;20474;-82
2022/05/12 06:03:11;;;;;;;6.40;2.10;;;;;;;;;;5072071;28;20111;-81
2022/05/12 06:05:36;;;;;;;8.13;2.58;;;;;;;;;;5070755;28;20048;-83
2022/05/12 06:08:03;;;;;;;6.75;2.47;;;;;;;;;;5070656;28;20059;-81
2022/05/12 06:10:29;;;;;;;7.40;2.50;;;;;;;;;;5070597;28;20166;-82
2022/05/12 06:12:55;;;;;;;11.38;2.35;;;;;;;;;;5070643;28;20070;-82
2022/05/12 06:15:21;;;;;;;7.97;2.45;;;;;;;;;;5071858;28;20033;-82
2022/05/12 06:17:46;;;;;;;9.23;2.42;;;;;;;;;;5071981;28;20036;-81
2022/05/12 06:20:12;;;;;;;4.03;1.83;;;;;;;;;;5070482;28;20029;-82
2022/05/12 06:22:38;;;;;;;5.10;2.30;;;;;;;;;;5070539;28;20090;-84
2022/05/12 06:25:06;;;;;;;7.97;2.20;;;;;;;;;;5072112;28;20039;-82
2022/05/12 06:27:32;;;;;;;9.38;2.35;;;;;;;;;;5070734;28;20363;-82
2022/05/12 06:29:57;;;;;;;4.70;1.85;;;;;;;;;;5053732;28;20391;-83
2022/05/12 06:32:23;;;;;;;5.20;2.25;;;;;;;;;;5071750;28;20034;-84
2022/05/12 06:34:48;;;;;;;5.40;2.13;;;;;;;;;;5070477;28;20094;-83
2022/05/12 06:37:14;;;;;;;7.57;2.38;;;;;;;;;;5070902;28;20028;-83
2022/05/12 06:39:39;;;;;;;3.22;1.67;;;;;;;;;;5053606;28;20028;-82
2022/05/12 06:42:06;;;;;;;3.28;1.63;;;;;;;;;;5071645;28;20068;-82
2022/05/12 06:44:31;;;;;;;5.75;1.80;;;;;;;;;;5070318;28;20033;-83
2022/05/12 06:46:57;;;;;;;5.63;1.65;;;;;;;;;;5053581;28;20082;-83
2022/05/12 06:49:22;;;;;;;4.85;1.85;;;;;;;;;;5071665;28;20036;-82
2022/05/12 06:51:48;;;;;;;4.38;1.95;;;;;;;;;;5071465;28;20048;-82
2022/05/12 06:54:14;;;;;;;3.38;1.63;;;;;;;;;;5070169;28;20032;-82
2022/05/12 06:56:41;;;;;;;4.75;1.77;;;;;;;;;;5070316;28;20024;-82
2022/05/12 06:59:07;;;;;;;4.30;1.80;;;;;;;;;;5071872;28;20082;-82
2022/05/12 07:01:33;;;;;;;9.95;1.90;;;;;;;;;;5069877;28;20564;-82
2022/05/12 07:04:00;;;;;;;5.80;1.67;;;;;;;;;;5070252;28;20033;-82
2022/05/12 07:06:26;;;;;;;4.93;1.50;;;;;;;;;;5071792;28;20056;-82
2022/05/12 07:08:51;;;;;;;5.47;1.70;;;;;;;;;;5071518;28;20477;-82
2022/05/12 07:11:16;;;;;;;3.05;1.50;;;;;;;;;;5054183;28;20425;-82
2022/05/12 07:13:42;;;;;;;5.03;1.55;;;;;;;;;;5053999;28;20345;-82
2022/05/12 07:16:08;;;;;;;2.88;1.40;;;;;;;;;;5074009;28;20024;-82
2022/05/12 07:18:35;;;;;;;2.20;1.40;;;;;;;;;;5057053;28;20471;-82
2022/05/12 07:26:35;;;;;;;1.40;1.20;;;;;;;;;;5073710;28;20102;-82
2022/05/12 07:29:01;;;;;;;3.53;1.40;;;;;;;;;;5075174;28;20069;-84
2022/05/12 07:31:27;;;;;;;2.08;1.30;;;;;;;;;;5073562;28;20040;-84
2022/05/12 07:33:52;;;;;;;1.75;1.20;;;;;;;;;;5074751;28;20115;-84
2022/05/12 07:36:29;;;;;;;3.28;1.40;;;;;;;;;;5074850;28;20514;-83
2022/05/12 07:38:56;;;;;;;3.90;1.60;;;;;;;;;;5075004;28;20327;-83
2022/05/12 07:41:22;;;;;;;2.28;1.10;;;;;;;;;;5056538;28;20025;-83
2022/05/12 07:43:48;;;;;;;3.47;1.20;;;;;;;;;;5056569;28;20390;-83
2022/05/12 07:46:21;;;;;;;2.30;1.30;;;;;;;;;;5073430;28;20032;-83
2022/05/12 07:48:47;;;;;;;1.98;1.02;;;;;;;;;;5057139;28;20032;-83
2022/05/12 07:51:13;;;;;;;1.73;1.08;;;;;;;;;;5069640;28;20146;-84
2022/05/12 07:53:39;;;;;;;1.42;0.95;;;;;;;;;;5069653;28;20487;-84
2022/05/12 07:56:05;;;;;;;6.30;1.35;;;;;;;;;;5054165;28;20037;-83
2022/05/12 07:58:31;;;;;;;4.95;1.00;;;;;;;;;;5069718;28;20456;-84
2022/05/12 08:00:57;;;;;;;3.00;1.42;;;;;;;;;;5069607;28;20036;-83
2022/05/12 08:03:23;;;;;;;2.47;1.30;;;;;;;;;;5054481;28;20029;-83
2022/05/12 08:05:49;;;;;;;2.22;1.20;;;;;;;;;;5054322;28;20033;-82
2022/05/12 08:08:15;;;;;;;3.17;1.10;;;;;;;;;;5069333;28;20055;-83
2022/05/12 08:10:40;;;;;;;1.92;1.05;;;;;;;;;;5052867;28;20045;-83
2022/05/12 08:13:14;;;;;;;2.42;1.27;;;;;;;;;;5069337;28;20103;-82
2022/05/12 08:15:40;;;;;;;2.58;1.33;;;;;;;;;;5068133;28;20045;-82
2022/05/12 08:18:06;;;;;;;2.20;1.08;;;;;;;;;;5069232;28;20035;-83
2022/05/12 08:20:31;;;;;;;3.00;1.23;;;;;;;;;;5052275;28;20341;-83
2022/05/12 08:22:57;;;;;;;1.25;0.88;;;;;;;;;;5053949;28;20385;-83
2022/05/12 08:25:22;;;;;;;3.08;1.20;;;;;;;;;;5069178;28;20062;-83
2022/05/12 08:27:48;;;;;;;1.35;0.95;;;;;;;;;;5053742;28;20052;-83
2022/05/12 08:30:16;;;;;;;2.92;1.20;;;;;;;;;;5069093;28;20104;-83
2022/05/12 08:32:42;;;;;;;1.55;0.98;;;;;;;;;;5053427;28;20044;-83
2022/05/12 08:35:07;;;;;;;1.70;0.95;;;;;;;;;;5052216;28;20120;-83
2022/05/12 08:37:33;;;;;;;2.28;1.17;;;;;;;;;;5051969;28;20037;-83
2022/05/12 08:39:58;;;;;;;1.10;0.95;;;;;;;;;;5051777;28;20035;-83
2022/05/12 08:42:32;;;;;;;2.53;1.00;;;;;;;;;;5053402;28;20036;-84
2022/05/12 08:44:59;;;;;;;1.13;0.90;;;;;;;;;;5068728;28;20025;-84
2022/05/12 08:47:31;;;;;;;2.38;1.27;;;;;;;;;;5053348;28;20370;-84
2022/05/12 08:49:57;;;;;;;1.02;0.82;;;;;;;;;;5051948;28;20025;-84
2022/05/12 08:52:24;;;;;;;2.58;0.90;;;;;;;;;;5051622;28;20132;-84
2022/05/12 08:54:55;;;;;;;1.23;0.88;;;;;;;;;;5068596;28;20029;-83
2022/05/12 08:57:31;;;;;;;3.38;1.00;;;;;;;;;;5068686;28;20041;-83
2022/05/12 08:59:57;;;;;;;2.03;1.20;;;;;;;;;;5068372;28;20017;-83
2022/05/12 09:02:49;;;;;;;2.25;1.10;;;;;;;;;;5068151;28;20021;-82
2022/05/12 09:05:21;;;;;;;4.90;1.00;;;;;;;;;;5052878;28;20029;-82
2022/05/12 09:08:15;;;;;;;2.55;0.93;;;;;;;;;;5068083;28;20033;-81
2022/05/12 09:10:59;;;;;;;2.20;1.00;;;;;;;;;;5068039;28;20028;-82
2022/05/12 09:13:30;;;;;;;1.50;0.90;;;;;;;;;;5068251;28;20044;-82
2022/05/12 09:16:05;;;;;;;2.75;1.00;;;;;;;;;;5051255;28;20558;-82
2022/05/12 09:18:33;;;;;;;1.48;0.85;;;;;;;;;;5052631;28;20431;-82
2022/05/12 09:21:10;;;;;;;2.53;0.82;;;;;;;;;;5051067;28;20027;-82
2022/05/12 09:23:36;;;;;;;1.30;0.90;;;;;;;;;;5068216;28;20025;-82
2022/05/12 09:26:30;;;;;;;2.88;0.70;;;;;;;;;;5068094;28;20028;-82
2022/05/12 09:28:57;;;;;;;;;;;;;;;;;;5053324;28;20161;-81
2022/05/12 09:31:22;;;;;;;1.05;0.70;;;;;;;;;;5051461;28;20343;-81
2022/05/12 09:33:51;;;;;;;1.35;0.90;;;;;;;;;;5052524;28;20090;-81
2022/05/12 09:36:23;;;;;;;1.08;0.88;;;;;;;;;;5067074;28;20112;-82
2022/05/12 09:38:54;;;;;;;1.75;0.80;;;;;;;;;;5050930;28;20036;-82
2022/05/12 09:41:23;;;;;;;1.60;0.80;;;;;;;;;;5066888;28;20333;-81
2022/05/12 09:43:53;;;;;;;1.08;0.80;;;;;;;;;;5051016;28;20064;-82
2022/05/12 09:46:22;;;;;;;1.80;0.88;;;;;;;;;;5052383;28;20351;-81
2022/05/12 09:48:49;;;;;;;2.13;1.00;;;;;;;;;;5052202;28;20098;-82
2022/05/12 09:51:33;;;;;;;2.10;0.80;;;;;;;;;;5054802;28;20052;-81
2022/05/12 09:54:26;;;;;;;1.65;0.90;;;;;;;;;;5072323;28;20029;-81
2022/05/12 09:56:59;;;;;;;0.70;0.70;;;;;;;;;;5054179;28;20142;-82
2022/05/12 09:59:27;;;;;;;1.25;0.88;;;;;;;;;;5054122;28;20028;-82
2022/05/12 10:01:55;;;;;;;1.27;0.80;;;;;;;;;;5072124;28;20020;-83
2022/05/12 10:07:59;;;;;;;1.73;0.88;;;;;;;;;;5072543;28;20040;-82
2022/05/12 10:10:13;;;;;;;1.30;0.90;;;;;;;;;;5063930;28;20044;-79
2022/05/12 10:13:03;;;;;;;1.15;0.80;;;;;;;;;;5072022;28;20463;-79
2022/05/12 10:15:39;;;;;;;1.38;0.85;;;;;;;;;;5070936;28;20036;-79
2022/05/12 10:18:16;;;;;;;1.95;0.80;;;;;;;;;;5070424;28;20055;-79
2022/05/12 10:20:44;;;;;;;1.35;0.80;;;;;;;;;;5053570;28;20385;-80
2022/05/12 10:23:31;;;;;;;1.20;0.70;;;;;;;;;;5070403;28;20078;-79
2022/05/12 10:26:16;;;;;;;1.25;0.70;;;;;;;;;;5071683;28;20025;-79
2022/05/12 10:28:50;;;;;;;1.50;0.85;;;;;;;;;;5070406;28;20066;-79
2022/05/12 10:31:26;;;;;;;1.75;0.65;;;;;;;;;;5070130;28;20023;-79
2022/05/12 10:34:29;;;;;;;2.15;0.90;;;;;;;;;;5071632;28;20406;-82
2022/05/12 10:37:13;;;;;;;1.95;0.80;;;;;;;;;;5071922;28;20020;-81
2022/05/12 10:39:41;;;;;;;2.80;0.90;;;;;;;;;;5071800;28;20025;-80
2022/05/12 10:42:16;;;;;;;4.90;0.90;;;;;;;;;;5071287;28;20021;-78
2022/05/12 10:45:11;;;;;;;5.55;1.00;;;;;;;;;;5071527;28;20044;-78
2022/05/12 10:47:52;;;;;;;1.55;0.85;;;;;;;;;;5070535;28;20446;-79
2022/05/12 10:50:18;;;;;;;1.10;0.90;;;;;;;;;;5074583;28;20038;-78
2022/05/12 10:53:09;;;;;;;1.98;0.60;;;;;;;;;;5075407;28;20394;-78
2022/05/12 10:56:10;;;;;;;2.72;0.98;;;;;;;;;;5073892;28;20044;-78
2022/05/12 10:58:40;;;;;;;3.05;0.90;;;;;;;;;;5075016;28;20048;-78
2022/05/12 11:01:12;;;;;;;4.25;1.35;;;;;;;;;;5074965;28;20016;-80
2022/05/12 11:03:54;;;;;;;2.97;1.10;;;;;;;;;;5075060;28;20051;-79
2022/05/12 11:06:23;;;;;;;3.47;0.77;;;;;;;;;;5057063;28;20039;-79
2022/05/12 11:08:54;;;;;;;2.55;1.00;;;;;;;;;;5073719;28;20020;-80
2022/05/12 11:11:28;;;;;;;2.97;0.98;;;;;;;;;;5056976;28;20191;-81
2022/05/12 11:14:06;;;;;;;3.00;0.90;;;;;;;;;;5056850;28;20036;-81
2022/05/12 11:16:56;;;;;;;2.10;0.85;;;;;;;;;;5073907;28;20021;-79
2022/05/12 11:19:24;;;;;;;2.00;0.88;;;;;;;;;;5057255;28;20028;-79
2022/05/12 11:21:52;;;;;;;1.88;0.95;;;;;;;;;;5040149;28;20020;-79
2022/05/12 11:24:49;;;;;;;1.05;0.90;;;;;;;;;;5057407;28;20036;-80
2022/05/12 11:27:30;;;;;;;5.63;1.00;;;;;;;;;;5073771;28;20032;-80
2022/05/12 11:30:14;;;;;;;6.93;1.50;;;;;;;;;;5056787;28;20020;-79
2022/05/12 11:32:55;;;;;;;7.82;1.30;;;;;;;;;;5056772;28;20020;-80
2022/05/12 11:35:30;;;;;;;5.07;1.05;;;;;;;;;;5074638;28;20066;-79
2022/05/12 11:38:05;;;;;;;4.07;1.08;;;;;;;;;;5057228;28;20432;-78
2022/05/12 11:40:40;;;;;;;1.42;0.73;;;;;;;;;;5056787;28;20052;-79
2022/05/12 11:46:47;;;;;;;1.27;0.77;;;;;;;;;;5074672;28;20117;-79
2022/05/12 11:49:34;;;;;;;1.90;0.90;;;;;;;;;;5035652;28;20040;-78
2022/05/12 11:52:22;;;;;;;2.10;0.95;;;;;;;;;;5072897;28;20105;-79
2022/05/12 11:54:51;;;;;;;5.25;1.10;;;;;;;;;;5074868;28;20038;-79
2022/05/12 11:57:36;;;;;;;1.55;0.73;;;;;;;;;;5039589;28;20034;-79
2022/05/12 12:00:09;;;;;;;1.13;0.80;;;;;;;;;;5072320;28;20040;-80
2022/05/12 12:02:43;;;;;;;1.40;1.00;;;;;;;;;;5056060;28;20024;-78
2022/05/12 12:05:11;;;;;;;3.30;0.75;;;;;;;;;;5073007;28;20099;-78
2022/05/12 12:07:37;;;;;;;2.22;0.90;;;;;;;;;;5073381;28;20032;-79
2022/05/12 12:10:30;;;;;;;3.67;1.00;;;;;;;;;;5074342;28;20034;-77
2022/05/12 12:13:15;;;;;;;4.18;1.13;;;;;;;;;;5036667;28;20483;-78
2022/05/12 12:15:58;;;;;;;0.73;0.63;;;;;;;;;;5074015;28;20059;-77
2022/05/12 12:18:28;;;;;;;3.05;0.90;;;;;;;;;;5072686;28;20020;-77
2022/05/12 12:20:57;;;;;;;1.90;0.80;;;;;;;;;;5055797;28;20554;-77
2022/05/12 12:23:31;;;;;;;1.70;1.20;;;;;;;;;;5072510;28;20067;-77
2022/05/12 12:26:09;;;;;;;2.03;0.98;;;;;;;;;;5072544;28;20574;-77
2022/05/12 12:28:55;;;;;;;1.60;0.90;;;;;;;;;;5072324;28;20029;-77
2022/05/12 12:31:24;;;;;;;3.03;0.85;;;;;;;;;;5072219;28;20044;-77
2022/05/12 12:34:02;;;;;;;1.40;0.82;;;;;;;;;;5055468;28;20028;-77
2022/05/12 12:36:36;;;;;;;2.83;0.80;;;;;;;;;;5055582;28;20086;-77
2022/05/12 12:39:11;;;;;;;1.95;0.73;;;;;;;;;;5073302;28;20387;-78
2022/05/12 12:41:42;;;;;;;2.28;0.73;;;;;;;;;;5055344;28;20063;-77
2022/05/12 12:44:18;;;;;;;2.17;0.90;;;;;;;;;;5072044;28;20536;-77
2022/05/12 12:47:12;;;;;;;3.15;0.80;;;;;;;;;;5071917;28;20093;-77
2022/05/12 12:49:51;;;;;;;2.75;0.68;;;;;;;;;;5071775;28;20020;-77
2022/05/12 12:52:20;;;;;;;1.92;0.98;;;;;;;;;;5071572;28;20132;-77
2022/05/12 12:57:43;;;;;;;0.98;0.70;;;;;;;;;;5071726;28;20036;-78
2022/05/12 13:00:34;;;;;;;1.00;0.73;;;;;;;;;;5072570;28;20024;-77
2022/05/12 13:03:02;;;;;;;3.33;0.90;;;;;;;;;;5072090;28;20045;-78
2022/05/12 13:05:29;;;;;;;3.58;0.82;;;;;;;;;;5072382;28;20020;-78
2022/05/12 13:08:03;;;;;;;3.72;0.75;;;;;;;;;;5072433;28;20116;-78
2022/05/12 13:10:32;;;;;;;3.20;0.90;;;;;;;;;;5054691;28;20031;-78
2022/05/12 13:13:03;;;;;;;1.95;1.10;;;;;;;;;;5053528;28;20034;-78
2022/05/12 13:15:32;;;;;;;1.23;1.02;;;;;;;;;;5054382;28;20025;-79
2022/05/12 13:18:00;;;;;;;2.97;1.00;;;;;;;;;;5054211;28;20032;-78
2022/05/12 13:20:32;;;;;;;2.05;0.93;;;;;;;;;;5053925;28;20051;-78
2022/05/12 13:23:10;;;;;;;2.63;0.90;;;;;;;;;;5070645;28;20558;-78
2022/05/12 13:25:39;;;;;;;0.98;0.80;;;;;;;;;;5070620;28;20032;-78
2022/05/12 13:28:06;;;;;;;0.88;0.70;;;;;;;;;;5070685;28;20024;-78
2022/05/12 13:30:45;;;;;;;2.22;1.15;;;;;;;;;;5070791;28;20016;-78
2022/05/12 13:33:13;;;;;;;0.90;0.80;;;;;;;;;;5053810;28;20446;-78
2022/05/12 13:35:39;;;;;;;3.75;1.10;;;;;;;;;;5070814;28;20387;-78
2022/05/12 13:38:08;;;;;;;1.88;1.25;;;;;;;;;;5070536;28;20025;-78
2022/05/12 13:40:52;;;;;;;0.95;0.90;;;;;;;;;;5053814;28;20024;-79
2022/05/12 13:43:24;;;;;;;1.90;1.10;;;;;;;;;;5070479;28;20463;-79
2022/05/12 13:46:20;;;;;;;4.45;1.08;;;;;;;;;;5053474;28;20411;-79
2022/05/12 13:48:53;;;;;;;2.22;0.90;;;;;;;;;;5021404;28;20427;-79
2022/05/12 13:52:18;;;;;;;0.95;0.88;;;;;;;;;;5070214;28;20466;-78
2022/05/12 13:54:49;;;;;;;4.55;1.88;;;;;;;;;;4989867;28;20133;-78
2022/05/12 13:57:37;;;;;;;2.25;1.10;;;;;;;;;;4973878;28;20038;-78
2022/05/12 14:00:11;;;;;;;1.00;0.80;;;;;;;;;;4974364;28;20093;-78
2022/05/12 14:02:44;;;;;;;0.85;0.80;;;;;;;;;;4974022;28;20034;-79
2022/05/12 14:05:22;;;;;;;1.80;0.90;;;;;;;;;;4973925;28;20030;-80
2022/05/12 14:08:08;;;;;;;1.40;0.90;;;;;;;;;;4957680;28;20065;-79
2022/05/12 14:11:02;;;;;;;4.25;1.20;;;;;;;;;;4990335;28;20045;-79
2022/05/12 14:19:15;;;;;;;1.13;0.65;;;;;;;;;;4976791;28;20080;-79
2022/05/12 14:21:55;;;;;;;1.95;1.05;;;;;;;;;;4974857;28;20122;-79
2022/05/12 14:24:23;;;;;;;0.77;0.77;;;;;;;;;;4976650;28;20040;-78
2022/05/12 14:26:49;;;;;;;2.40;0.80;;;;;;;;;;5058768;28;20088;-78
2022/05/12 14:29:15;;;;;;;2.75;0.70;;;;;;;;;;5058843;28;20063;-77
2022/05/12 14:31:42;;;;;;;2.65;0.82;;;;;;;;;;5059355;28;20113;-78
2022/05/12 14:34:08;;;;;;;2.45;0.90;;;;;;;;;;5075015;28;20394;-78
2022/05/12 14:36:34;;;;;;;0.98;0.75;;;;;;;;;;5057586;28;20033;-79
2022/05/12 14:39:00;;;;;;;1.23;0.77;;;;;;;;;;5059407;28;20028;-79
2022/05/12 14:41:26;;;;;;;1.73;0.85;;;;;;;;;;5075105;28;20021;-79
2022/05/12 14:43:51;;;;;;;2.15;0.80;;;;;;;;;;5058508;28;20066;-79
2022/05/12 14:46:21;;;;;;;2.65;0.82;;;;;;;;;;5074815;28;20032;-78
2022/05/12 14:48:46;;;;;;;0.98;0.70;;;;;;;;;;5058003;28;20028;-78
2022/05/12 14:51:12;;;;;;;1.35;0.82;;;;;;;;;;5074694;28;20169;-79
2022/05/12 14:53:39;;;;;;;3.72;0.80;;;;;;;;;;5074084;28;20090;-78
2022/05/12 14:56:05;;;;;;;3.67;1.00;;;;;;;;;;5073841;28;20048;-79
2022/05/12 14:58:31;;;;;;;3.13;1.10;;;;;;;;;;5074089;28;20040;-78
2022/05/12 15:00:57;;;;;;;2.08;0.80;;;;;;;;;;5057060;28;20043;-79
2022/05/12 15:03:22;;;;;;;7.13;0.82;;;;;;;;;;5073312;28;20039;-78
2022/05/12 15:05:47;;;;;;;4.68;1.15;;;;;;;;;;5056425;28;20024;-78
2022/05/12 15:08:13;;;;;;;0.80;0.80;;;;;;;;;;5056473;28;20123;-78
2022/05/12 15:10:38;;;;;;;3.88;0.90;;;;;;;;;;5074438;28;20024;-78
2022/05/12 15:13:03;;;;;;;2.22;0.70;;;;;;;;;;5074014;28;20025;-78
2022/05/12 15:15:31;;;;;;;1.73;0.80;;;;;;;;;;5076038;28;20394;-78
2022/05/12 15:17:56;;;;;;;5.15;1.00;;;;;;;;;;5074259;28;20051;-78
2022/05/12 15:20:23;;;;;;;1.80;0.93;;;;;;;;;;5074402;28;20472;-78
2022/05/12 15:22:49;;;;;;;1.55;0.80;;;;;;;;;;5057927;28;20471;-78
2022/05/12 15:25:15;;;;;;;1.45;0.85;;;;;;;;;;5057968;28;20135;-78